Sacriston, United Kingdom
Current Conditions -  °F | °C
As of 11:50 PM on Thursday 18 Dec 2014 (Local Time) from EGNT Reporting Station
Clear Clear  
Wind Chill: 36°   Ceiling: Unl
Heat Index: 45°   Visibility: 6mi
Dew Point: 39°   Wind: 22mph
Humidity: 81%   Direction: 270°W
Pressure: 29.5"   Gusts: NA
Location:  54.82°N, 1.62°W
Report Text: EGNT 182350Z 27019KT CAVOK 07/04 Q0999
Loading
Personal Weather Stations






























Interactive Weather Map New forecast layout! Learn more

10-Day Weather Forecast

Advertisements
Track Severe Weather on mobile